createdAt,value
2019-02-22T00:00:22.727Z,9.86
2019-02-22T00:02:51.137Z,9.72
2019-02-22T00:05:19.484Z,9.56
2019-02-22T00:07:47.830Z,9.59
2019-02-22T00:10:16.485Z,9.65
2019-02-22T00:12:44.922Z,9.74
2019-02-22T00:15:14.081Z,9.83
2019-02-22T00:17:42.398Z,9.88
2019-02-22T00:20:11.203Z,9.83
2019-02-22T00:22:39.543Z,9.84
2019-02-22T00:25:07.932Z,9.96
2019-02-22T00:27:36.330Z,9.95
2019-02-22T00:30:06.303Z,10.11
2019-02-22T00:32:34.661Z,10.14
2019-02-22T00:35:03.903Z,10.29
2019-02-22T00:37:32.530Z,10.35
2019-02-22T00:42:35.124Z,10.46
2019-02-22T00:45:03.598Z,10.53
2019-02-22T00:47:31.932Z,10.48
2019-02-22T00:50:00.332Z,10.46
2019-02-22T00:52:28.740Z,10.42
2019-02-22T00:54:57.082Z,10.53
2019-02-22T00:57:25.465Z,10.43
2019-02-22T00:59:53.919Z,10.46
2019-02-22T01:02:22.303Z,10.53
2019-02-22T01:04:51.018Z,10.47
2019-02-22T01:07:20.416Z,10.41
2019-02-22T01:09:48.800Z,10.41
2019-02-22T01:12:17.119Z,10.46
2019-02-22T01:14:45.478Z,10.48
2019-02-22T01:17:13.898Z,10.41
2019-02-22T01:19:42.261Z,10.55
2019-02-22T01:22:11.082Z,10.61
2019-02-22T01:24:39.437Z,10.57
2019-02-22T01:27:07.852Z,10.63
2019-02-22T01:29:36.223Z,10.86
2019-02-22T01:32:04.555Z,10.85
2019-02-22T01:34:32.973Z,10.99
2019-02-22T01:37:01.308Z,10.96
2019-02-22T01:39:29.666Z,10.95
2019-02-22T01:41:58.001Z,10.92
2019-02-22T01:44:26.360Z,10.95
2019-02-22T01:46:54.680Z,11.00
2019-02-22T01:49:23.035Z,11.00
2019-02-22T01:51:51.420Z,11.07
2019-02-22T01:54:19.774Z,11.00
2019-02-22T01:56:48.139Z,11.01
2019-02-22T01:59:16.506Z,10.99
2019-02-22T02:01:44.948Z,11.01
2019-02-22T02:04:13.362Z,11.11
2019-02-22T02:06:41.848Z,11.01
2019-02-22T02:09:10.899Z,10.97
2019-02-22T02:11:39.232Z,11.11
2019-02-22T02:14:07.575Z,11.02
2019-02-22T02:16:35.934Z,10.96
2019-02-22T02:19:04.300Z,10.82
2019-02-22T02:21:32.756Z,10.75
2019-02-22T02:24:01.130Z,10.71
2019-02-22T02:26:29.544Z,10.63
2019-02-22T02:28:57.872Z,10.64
2019-02-22T02:31:26.258Z,10.67
2019-02-22T02:33:54.733Z,10.64
2019-02-22T02:36:23.066Z,10.67
2019-02-22T02:38:51.523Z,10.68
2019-02-22T02:41:19.834Z,10.76
2019-02-22T02:43:48.188Z,10.93
2019-02-22T02:46:16.541Z,10.89
2019-02-22T02:48:44.891Z,10.94
2019-02-22T02:51:13.503Z,10.97
2019-02-22T02:53:41.869Z,10.92
2019-02-22T02:56:10.632Z,10.90
2019-02-22T02:58:39.301Z,10.93
2019-02-22T03:01:07.719Z,10.87
2019-02-22T03:03:36.105Z,10.91
2019-02-22T03:06:06.503Z,10.88
2019-02-22T03:08:35.293Z,10.78
2019-02-22T03:11:03.761Z,10.73
2019-02-22T03:13:32.187Z,10.74
2019-02-22T03:16:00.564Z,10.86
2019-02-22T03:18:28.902Z,11.02
2019-02-22T03:20:57.230Z,10.91
2019-02-22T03:23:25.594Z,10.94
2019-02-22T03:25:53.949Z,10.92
2019-02-22T03:28:22.411Z,10.87
2019-02-22T03:30:50.789Z,10.93
2019-02-22T03:33:19.224Z,10.87
2019-02-22T03:35:47.685Z,10.86
2019-02-22T03:38:16.021Z,10.91
2019-02-22T03:40:44.447Z,10.93
2019-02-22T03:43:12.816Z,10.92
2019-02-22T03:45:41.203Z,10.93
2019-02-22T03:48:09.984Z,10.99
2019-02-22T03:50:38.337Z,10.98
2019-02-22T03:53:10.590Z,10.87
2019-02-22T03:55:38.967Z,10.94
2019-02-22T03:58:07.379Z,10.88
2019-02-22T04:00:36.739Z,10.85
2019-02-22T04:03:05.180Z,10.96
2019-02-22T04:05:33.572Z,10.92
2019-02-22T04:08:01.914Z,10.87
2019-02-22T04:10:30.335Z,10.91
2019-02-22T04:12:58.682Z,10.98
2019-02-22T04:15:27.048Z,10.90
2019-02-22T04:17:55.394Z,10.95
2019-02-22T04:20:23.746Z,10.91
2019-02-22T04:22:52.081Z,10.94
2019-02-22T04:25:20.543Z,10.95
2019-02-22T04:27:49.016Z,10.97
2019-02-22T04:30:17.555Z,11.00
2019-02-22T04:32:45.922Z,10.95
2019-02-22T04:35:14.777Z,10.97
2019-02-22T04:37:43.206Z,10.86
2019-02-22T04:40:12.379Z,11.00
2019-02-22T04:42:40.742Z,10.91
2019-02-22T04:45:09.391Z,10.90
2019-02-22T04:47:37.737Z,10.85
2019-02-22T04:50:06.711Z,11.00
2019-02-22T04:52:35.061Z,10.94
2019-02-22T04:55:03.492Z,11.00
2019-02-22T04:57:31.895Z,11.02
2019-02-22T05:00:00.579Z,11.02
2019-02-22T05:02:28.943Z,10.95
2019-02-22T05:04:57.289Z,10.87
2019-02-22T05:07:25.653Z,10.91
2019-02-22T05:09:53.995Z,10.88
2019-02-22T05:12:22.364Z,11.05
2019-02-22T05:14:50.708Z,11.00
2019-02-22T05:17:19.104Z,10.93
2019-02-22T05:19:47.425Z,10.97
2019-02-22T05:22:15.801Z,10.96
2019-02-22T05:24:44.141Z,10.86
2019-02-22T05:27:13.523Z,10.92
2019-02-22T05:29:41.842Z,10.90
2019-02-22T05:32:10.892Z,10.87
2019-02-22T05:34:39.213Z,10.90
2019-02-22T05:37:07.590Z,10.80
2019-02-22T05:39:35.945Z,10.82
2019-02-22T05:42:04.283Z,10.82
2019-02-22T05:44:32.633Z,10.82
2019-02-22T05:47:00.988Z,10.86
2019-02-22T05:49:29.435Z,10.86
2019-02-22T05:51:57.960Z,10.91
2019-02-22T05:54:26.451Z,10.87
2019-02-22T05:56:55.338Z,10.79
2019-02-22T05:59:23.941Z,10.71
2019-02-22T06:01:52.399Z,10.80
2019-02-22T06:04:20.958Z,10.83
2019-02-22T06:06:49.377Z,10.87
2019-02-22T06:09:17.751Z,10.82
2019-02-22T06:11:46.317Z,10.83
2019-02-22T06:14:14.648Z,10.74
2019-02-22T06:16:44.884Z,10.75
2019-02-22T06:19:14.137Z,10.81
2019-02-22T06:21:42.473Z,10.83
2019-02-22T06:24:10.836Z,10.85
2019-02-22T06:26:39.237Z,10.89
2019-02-22T06:29:07.933Z,10.87
2019-02-22T06:31:36.760Z,10.84
2019-02-22T06:34:05.214Z,10.91
2019-02-22T06:36:33.559Z,10.93
2019-02-22T06:39:01.922Z,10.95
2019-02-22T06:41:30.331Z,10.93
2019-02-22T06:43:58.679Z,10.97
2019-02-22T06:46:27.072Z,11.10
2019-02-22T06:48:55.417Z,11.19
2019-02-22T06:51:23.883Z,11.21
2019-02-22T06:53:52.806Z,11.23
2019-02-22T06:56:21.485Z,11.25
2019-02-22T06:58:51.669Z,11.31
2019-02-22T07:01:20.045Z,11.26
2019-02-22T07:03:48.362Z,11.31
2019-02-22T07:06:16.722Z,11.21
2019-02-22T07:08:45.067Z,11.23
2019-02-22T07:11:16.048Z,11.19
2019-02-22T07:13:44.404Z,11.20
2019-02-22T07:16:12.757Z,11.23
2019-02-22T07:18:41.134Z,11.30
2019-02-22T07:21:09.733Z,11.27
2019-02-22T07:23:38.122Z,11.35
2019-02-22T07:26:06.658Z,11.26
2019-02-22T07:28:35.019Z,11.22
2019-02-22T07:31:03.376Z,11.30
2019-02-22T07:33:31.721Z,11.25
2019-02-22T07:36:00.048Z,11.32
2019-02-22T07:38:29.037Z,11.47
2019-02-22T07:40:57.365Z,11.58
2019-02-22T07:43:25.708Z,11.78
2019-02-22T07:45:54.068Z,11.67
2019-02-22T07:48:22.426Z,11.70
2019-02-22T07:50:57.427Z,11.71
2019-02-22T07:53:21.236Z,11.68
2019-02-22T07:55:49.577Z,11.88
2019-02-22T07:58:18.001Z,11.83
2019-02-22T08:00:46.378Z,11.92
2019-02-22T08:03:14.750Z,11.85
2019-02-22T08:05:43.073Z,11.81
2019-02-22T08:08:11.454Z,11.77
2019-02-22T08:10:39.791Z,11.82
2019-02-22T08:13:19.184Z,11.90
2019-02-22T08:15:39.280Z,12.03
2019-02-22T08:18:07.933Z,12.10
2019-02-22T08:20:36.251Z,12.18
2019-02-22T08:23:04.601Z,12.11
2019-02-22T08:25:33.001Z,12.08
2019-02-22T08:28:01.414Z,12.05
2019-02-22T08:30:29.823Z,12.13
2019-02-22T08:32:58.162Z,12.20
2019-02-22T08:35:26.626Z,12.08
2019-02-22T08:37:54.948Z,12.14
2019-02-22T08:40:23.310Z,12.11
2019-02-22T08:42:51.685Z,12.15
2019-02-22T08:45:20.072Z,12.07
2019-02-22T08:47:48.398Z,12.26
2019-02-22T08:50:16.803Z,12.15
2019-02-22T08:52:45.156Z,12.21
2019-02-22T08:55:13.518Z,12.24
2019-02-22T08:57:41.860Z,12.16
2019-02-22T09:00:12.409Z,12.28
2019-02-22T09:02:40.793Z,12.51
2019-02-22T09:05:10.002Z,12.68
2019-02-22T09:07:38.346Z,12.73
2019-02-22T09:10:10.742Z,12.77
2019-02-22T09:12:39.101Z,12.87
2019-02-22T09:15:09.657Z,13.06
2019-02-22T09:17:37.988Z,12.70
2019-02-22T09:20:11.112Z,12.89
2019-02-22T09:22:39.445Z,13.08
2019-02-22T09:25:08.111Z,13.03
2019-02-22T09:27:36.462Z,12.92
2019-02-22T09:30:08.224Z,13.11
2019-02-22T09:32:36.562Z,13.25
2019-02-22T09:35:08.100Z,13.29
2019-02-22T09:37:36.487Z,13.60
2019-02-22T09:40:08.252Z,13.91
2019-02-22T09:42:36.622Z,14.01
2019-02-22T09:45:08.052Z,14.07
2019-02-22T09:47:36.385Z,13.93
2019-02-22T09:50:09.553Z,13.94
2019-02-22T09:52:37.897Z,13.82
2019-02-22T09:55:09.006Z,13.19
2019-02-22T09:57:37.559Z,13.31
2019-02-22T10:00:10.418Z,13.21
2019-02-22T10:02:38.821Z,13.06
2019-02-22T10:05:09.468Z,12.99
2019-02-22T10:07:37.829Z,13.06
2019-02-22T10:10:09.514Z,13.12
2019-02-22T10:12:37.858Z,13.23
2019-02-22T10:15:08.117Z,13.37
2019-02-22T10:17:36.458Z,13.77
2019-02-22T10:20:06.481Z,13.56
2019-02-22T10:22:34.860Z,14.01
2019-02-22T10:25:03.555Z,13.90
2019-02-22T10:27:31.963Z,13.84
2019-02-22T10:30:00.300Z,13.76
2019-02-22T10:32:28.636Z,13.63
2019-02-22T10:34:56.998Z,13.48
2019-02-22T10:37:25.310Z,13.41
2019-02-22T10:39:53.652Z,13.31
2019-02-22T10:42:21.987Z,13.02
2019-02-22T10:44:50.321Z,12.97
2019-02-22T10:47:18.646Z,12.35
2019-02-22T10:49:47.119Z,12.72
2019-02-22T10:52:15.891Z,12.56
2019-02-22T10:54:44.271Z,12.64
2019-02-22T10:57:12.603Z,12.53
2019-02-22T10:59:40.981Z,12.67
2019-02-22T11:02:09.394Z,12.64
2019-02-22T11:04:37.745Z,12.61
2019-02-22T11:07:06.186Z,12.68
2019-02-22T11:09:34.527Z,12.77
2019-02-22T11:12:02.899Z,12.65
2019-02-22T11:14:31.295Z,12.83
2019-02-22T11:16:59.623Z,12.86
2019-02-22T11:19:27.988Z,12.36
2019-02-22T11:21:56.332Z,12.70
2019-02-22T11:24:24.660Z,12.59
2019-02-22T11:26:53.065Z,12.86
2019-02-22T11:29:21.427Z,12.70
2019-02-22T11:31:49.765Z,12.76
2019-02-22T11:34:18.117Z,12.60
2019-02-22T11:36:46.472Z,12.51
2019-02-22T11:39:14.820Z,12.78
2019-02-22T11:41:43.169Z,12.58
2019-02-22T11:44:11.515Z,12.77
2019-02-22T11:46:39.875Z,12.83
2019-02-22T11:49:08.545Z,12.75
2019-02-22T11:51:36.879Z,12.81
2019-02-22T11:54:05.253Z,12.92
2019-02-22T11:56:33.685Z,12.63
2019-02-22T11:59:02.001Z,12.35
2019-02-22T12:01:30.458Z,12.25
2019-02-22T12:03:58.865Z,12.29
2019-02-22T12:06:27.209Z,12.13
2019-02-22T12:08:55.541Z,12.16
2019-02-22T12:11:23.905Z,12.21
2019-02-22T12:13:52.227Z,12.29
2019-02-22T12:16:20.623Z,12.31
2019-02-22T12:18:49.029Z,12.10
2019-02-22T12:21:17.378Z,12.14
2019-02-22T12:23:45.738Z,12.09
2019-02-22T12:26:14.258Z,11.94
2019-02-22T12:28:42.604Z,12.04
2019-02-22T12:31:10.939Z,12.07
2019-02-22T12:33:39.334Z,12.23
2019-02-22T12:36:09.637Z,12.15
2019-02-22T12:38:38.210Z,12.16
2019-02-22T12:41:06.870Z,12.27
2019-02-22T12:43:35.206Z,12.35
2019-02-22T12:46:03.559Z,12.40
2019-02-22T12:48:31.971Z,12.29
2019-02-22T12:51:00.375Z,12.14
2019-02-22T12:53:28.716Z,12.30
2019-02-22T12:55:57.155Z,12.36
2019-02-22T12:58:25.562Z,12.32
2019-02-22T13:00:53.917Z,12.38
2019-02-22T13:03:22.283Z,12.50
2019-02-22T13:05:50.597Z,12.44
2019-02-22T13:08:18.954Z,12.26
2019-02-22T13:10:47.305Z,12.39
2019-02-22T13:13:15.909Z,12.64
2019-02-22T13:15:44.196Z,12.55
2019-02-22T13:18:12.680Z,12.60
2019-02-22T13:20:41.133Z,12.64
2019-02-22T13:23:10.343Z,12.56
2019-02-22T13:25:38.737Z,12.53
2019-02-22T13:28:07.400Z,12.50
2019-02-22T13:30:35.698Z,12.40
2019-02-22T13:33:04.065Z,12.38
2019-02-22T13:35:32.438Z,12.17
2019-02-22T13:38:00.785Z,12.11
2019-02-22T13:40:29.143Z,12.29
2019-02-22T13:42:57.499Z,12.27
2019-02-22T13:45:27.120Z,12.24
2019-02-22T13:47:55.751Z,12.36
2019-02-22T13:50:24.234Z,12.43
2019-02-22T13:52:52.798Z,12.39
2019-02-22T13:55:21.120Z,12.50
2019-02-22T13:57:49.480Z,12.65
2019-02-22T14:00:18.842Z,12.72
2019-02-22T14:02:47.289Z,12.78
2019-02-22T14:05:15.732Z,12.83
2019-02-22T14:07:50.658Z,12.65
2019-02-22T14:10:19.478Z,12.64
2019-02-22T14:12:47.878Z,12.63
2019-02-22T14:15:18.665Z,12.65
2019-02-22T14:17:46.623Z,12.87
2019-02-22T14:20:14.974Z,12.79
2019-02-22T14:22:43.285Z,12.68
2019-02-22T14:25:11.913Z,12.70
2019-02-22T14:27:40.332Z,12.67
2019-02-22T14:30:12.154Z,12.40
2019-02-22T14:32:40.476Z,12.42
2019-02-22T14:35:09.492Z,12.42
2019-02-22T14:37:37.951Z,12.46
2019-02-22T14:40:09.230Z,12.47
2019-02-22T14:42:37.540Z,12.29
2019-02-22T14:45:08.979Z,12.33
2019-02-22T14:47:37.292Z,12.43
2019-02-22T14:50:10.212Z,12.50
2019-02-22T14:52:38.558Z,12.39
2019-02-22T14:55:08.686Z,12.26
2019-02-22T14:57:37.074Z,12.35
2019-02-22T15:00:11.630Z,12.35
2019-02-22T15:02:41.235Z,12.52
2019-02-22T15:05:11.271Z,12.60
2019-02-22T15:07:39.625Z,12.52
2019-02-22T15:10:09.239Z,12.45
2019-02-22T15:12:37.545Z,12.48
2019-02-22T15:15:10.453Z,12.33
2019-02-22T15:17:41.044Z,12.39
2019-02-22T15:20:10.141Z,12.09
2019-02-22T15:22:38.488Z,12.24
2019-02-22T15:25:10.639Z,12.31
2019-02-22T15:27:38.959Z,12.16
2019-02-22T15:30:11.194Z,12.21
2019-02-22T15:32:39.608Z,12.12
2019-02-22T15:35:11.329Z,12.09
2019-02-22T15:37:39.682Z,12.11
2019-02-22T15:40:10.914Z,12.12
2019-02-22T15:42:40.610Z,12.15
2019-02-22T15:45:15.647Z,12.10
2019-02-22T15:47:44.042Z,12.01
2019-02-22T15:50:14.086Z,11.99
2019-02-22T15:52:42.527Z,11.92
2019-02-22T15:55:14.214Z,11.97
2019-02-22T15:57:42.140Z,12.02
2019-02-22T16:00:13.259Z,11.85
2019-02-22T16:02:41.618Z,11.83
2019-02-22T16:05:12.966Z,11.86
2019-02-22T16:07:44.657Z,11.72
2019-02-22T16:10:12.893Z,11.72
2019-02-22T16:12:41.296Z,11.68
2019-02-22T16:15:10.599Z,11.62
2019-02-22T16:17:39.011Z,11.42
2019-02-22T16:20:08.409Z,11.18
2019-02-22T16:22:36.780Z,11.22
2019-02-22T16:25:06.281Z,11.14
2019-02-22T16:27:34.634Z,11.03
2019-02-22T16:30:03.467Z,10.94
2019-02-22T16:32:31.813Z,10.86
2019-02-22T16:35:00.244Z,10.70
2019-02-22T16:37:28.685Z,10.72
2019-02-22T16:39:57.125Z,10.61
2019-02-22T16:42:25.482Z,10.68
2019-02-22T16:44:53.805Z,10.53
2019-02-22T16:47:22.164Z,10.40
2019-02-22T16:49:50.500Z,10.43
2019-02-22T16:52:18.865Z,10.37
2019-02-22T16:54:47.279Z,10.28
2019-02-22T16:57:15.617Z,10.15
2019-02-22T16:59:43.984Z,10.09
2019-02-22T17:02:12.372Z,9.98
2019-02-22T17:04:40.723Z,10.04
2019-02-22T17:07:09.420Z,9.97
2019-02-22T17:09:37.811Z,9.96
2019-02-22T17:12:07.013Z,9.93
2019-02-22T17:14:35.532Z,9.89
2019-02-22T17:17:03.914Z,9.89
2019-02-22T17:19:32.310Z,9.77
2019-02-22T17:22:00.706Z,9.79
2019-02-22T17:24:29.066Z,9.66
2019-02-22T17:26:57.421Z,9.74
2019-02-22T17:29:25.802Z,9.64
2019-02-22T17:31:54.183Z,9.72
2019-02-22T17:34:22.493Z,9.56
2019-02-22T17:36:50.834Z,9.49
2019-02-22T17:39:19.170Z,9.39
2019-02-22T17:41:48.258Z,9.41
2019-02-22T17:44:16.575Z,9.32
2019-02-22T17:46:44.896Z,9.28
2019-02-22T17:49:13.251Z,9.35
2019-02-22T17:51:41.587Z,9.34
2019-02-22T17:54:10.101Z,9.32
2019-02-22T17:56:38.434Z,9.28
2019-02-22T17:59:06.801Z,9.14
2019-02-22T18:01:35.261Z,9.09
2019-02-22T18:04:03.609Z,9.11
2019-02-22T18:06:31.960Z,9.14
2019-02-22T18:09:00.405Z,9.10
2019-02-22T18:11:28.747Z,8.98
2019-02-22T18:13:57.086Z,8.90
2019-02-22T18:16:25.439Z,8.82
2019-02-22T18:18:53.776Z,8.89
2019-02-22T18:21:22.167Z,8.99
2019-02-22T18:23:51.468Z,9.13
2019-02-22T18:26:19.824Z,9.05
2019-02-22T18:28:48.180Z,8.87
2019-02-22T18:31:16.567Z,9.05
2019-02-22T18:33:45.528Z,8.92
2019-02-22T18:36:13.878Z,8.82
2019-02-22T18:38:42.270Z,8.66
2019-02-22T18:41:11.234Z,8.74
2019-02-22T18:43:39.560Z,8.89
2019-02-22T18:46:07.902Z,8.84
2019-02-22T18:48:36.237Z,8.86
2019-02-22T18:51:04.610Z,8.62
2019-02-22T18:53:32.995Z,8.52
2019-02-22T18:56:01.413Z,8.52
2019-02-22T18:58:29.750Z,8.59
2019-02-22T19:00:58.102Z,8.57
2019-02-22T19:03:26.445Z,8.39
2019-02-22T19:05:54.782Z,8.38
2019-02-22T19:08:32.161Z,8.26
2019-02-22T19:10:53.521Z,8.38
2019-02-22T19:13:21.909Z,8.27
2019-02-22T19:15:50.249Z,8.24
2019-02-22T19:18:18.613Z,8.31
2019-02-22T19:20:47.046Z,8.16
2019-02-22T19:23:15.511Z,8.11
2019-02-22T19:25:43.846Z,7.97
2019-02-22T19:28:12.413Z,8.01
2019-02-22T19:30:40.740Z,8.08
2019-02-22T19:33:09.101Z,8.27
2019-02-22T19:35:37.439Z,8.14
2019-02-22T19:38:05.867Z,8.19
2019-02-22T19:40:34.178Z,8.36
2019-02-22T19:43:02.536Z,8.39
2019-02-22T19:45:30.912Z,8.35
2019-02-22T19:47:59.279Z,8.28
2019-02-22T19:50:27.611Z,7.97
2019-02-22T19:52:55.989Z,7.94
2019-02-22T19:55:24.373Z,7.89
2019-02-22T19:57:52.737Z,7.87
2019-02-22T20:00:21.119Z,7.79
2019-02-22T20:02:49.469Z,7.88
2019-02-22T20:05:17.843Z,7.78
2019-02-22T20:07:46.898Z,7.80
2019-02-22T20:10:18.216Z,7.75
2019-02-22T20:12:46.955Z,7.81
2019-02-22T20:15:16.627Z,7.83
2019-02-22T20:17:53.232Z,7.82
2019-02-22T20:20:17.481Z,7.95
2019-02-22T20:22:45.854Z,7.92
2019-02-22T20:25:15.079Z,7.76
2019-02-22T20:27:43.478Z,7.75
2019-02-22T20:30:14.767Z,7.75
2019-02-22T20:32:43.630Z,7.80
2019-02-22T20:35:14.806Z,7.86
2019-02-22T20:37:51.892Z,7.93
2019-02-22T20:40:14.664Z,7.77
2019-02-22T20:42:43.053Z,7.53
2019-02-22T20:45:12.962Z,7.57
2019-02-22T20:47:41.320Z,7.63
2019-02-22T20:50:11.737Z,7.65
2019-02-22T20:52:40.113Z,7.69
2019-02-22T20:55:10.027Z,7.46
2019-02-22T20:57:38.646Z,7.34
2019-02-22T21:00:12.053Z,7.34
2019-02-22T21:02:40.385Z,7.41
2019-02-22T21:05:09.877Z,7.39
2019-02-22T21:07:38.263Z,7.28
2019-02-22T21:10:10.400Z,7.19
2019-02-22T21:12:38.745Z,7.11
2019-02-22T21:15:08.728Z,7.05
2019-02-22T21:17:37.084Z,7.27
2019-02-22T21:20:07.981Z,7.34
2019-02-22T21:22:36.332Z,7.40
2019-02-22T21:25:06.990Z,7.37
2019-02-22T21:27:35.343Z,7.39
2019-02-22T21:30:05.189Z,7.27
2019-02-22T21:32:33.525Z,7.28
2019-02-22T21:35:01.916Z,7.22
2019-02-22T21:37:30.298Z,7.17
2019-02-22T21:39:58.630Z,7.22
2019-02-22T21:42:26.966Z,7.18
2019-02-22T21:44:55.310Z,7.00
2019-02-22T21:47:23.656Z,6.92
2019-02-22T21:49:51.980Z,6.89
2019-02-22T21:52:20.327Z,6.94
2019-02-22T21:54:48.638Z,6.84
2019-02-22T21:57:17.010Z,6.79
2019-02-22T21:59:45.337Z,6.76
2019-02-22T22:02:14.402Z,6.72
2019-02-22T22:04:42.745Z,6.74
2019-02-22T22:07:11.499Z,6.72
2019-02-22T22:09:39.937Z,6.83
2019-02-22T22:12:08.416Z,6.86
2019-02-22T22:14:36.900Z,6.74
2019-02-22T22:17:05.318Z,6.61
2019-02-22T22:19:33.669Z,6.49
2019-02-22T22:22:02.022Z,6.40
2019-02-22T22:24:30.357Z,6.29
2019-02-22T22:26:58.689Z,6.28
2019-02-22T22:29:27.030Z,6.28
2019-02-22T22:31:55.359Z,6.21
2019-02-22T22:34:23.711Z,6.19
2019-02-22T22:36:52.032Z,6.09
2019-02-22T22:39:20.386Z,6.04
2019-02-22T22:41:49.060Z,6.00
2019-02-22T22:44:17.391Z,6.00
2019-02-22T22:46:45.741Z,6.00
2019-02-22T22:49:14.110Z,5.97
2019-02-22T22:51:42.495Z,5.97
2019-02-22T22:54:11.851Z,5.92
2019-02-22T22:56:40.206Z,5.88
2019-02-22T22:59:08.697Z,5.92
2019-02-22T23:01:37.047Z,5.88
2019-02-22T23:04:31.337Z,5.84
2019-02-22T23:06:59.731Z,5.79
2019-02-22T23:09:28.153Z,5.77
2019-02-22T23:11:56.455Z,5.68
2019-02-22T23:14:24.804Z,5.63
2019-02-22T23:16:53.117Z,5.65
2019-02-22T23:19:21.458Z,5.58
2019-02-22T23:21:49.823Z,5.59
2019-02-22T23:24:18.229Z,5.48
2019-02-22T23:26:46.560Z,5.40
2019-02-22T23:29:14.938Z,5.44
2019-02-22T23:31:43.337Z,5.42
2019-02-22T23:34:12.206Z,5.37
2019-02-22T23:36:40.550Z,5.34
2019-02-22T23:39:09.388Z,5.32
2019-02-22T23:41:37.792Z,5.30
2019-02-22T23:44:06.120Z,5.27
2019-02-22T23:46:34.508Z,5.25
2019-02-22T23:49:12.839Z,5.36
2019-02-22T23:51:33.241Z,5.33
2019-02-22T23:54:01.598Z,5.30
2019-02-22T23:56:29.911Z,5.31
2019-02-22T23:58:58.228Z,5.31
